createdAt,value
2023-02-23T00:01:54.266Z,100888.91
2023-02-23T00:04:23.668Z,100890.81
2023-02-23T00:06:52.554Z,100882.97
2023-02-23T00:09:35.366Z,100889.22
2023-02-23T00:12:08.410Z,100882.38
2023-02-23T00:14:37.634Z,100887.13
2023-02-23T00:17:04.684Z,100887.63
2023-02-23T00:19:33.466Z,100895.66
2023-02-23T00:22:01.254Z,100883.34
2023-02-23T00:24:28.688Z,100886.19
2023-02-23T00:26:55.556Z,100887.81
2023-02-23T00:29:24.936Z,100886.50
2023-02-23T00:31:56.065Z,100884.28
2023-02-23T00:34:23.686Z,100877.72
2023-02-23T00:36:54.462Z,100889.22
2023-02-23T00:39:23.939Z,100881.56
2023-02-23T00:41:52.581Z,100879.34
2023-02-23T00:44:21.856Z,100879.81
2023-02-23T00:46:51.334Z,100875.31
2023-02-23T00:49:18.972Z,100884.09
2023-02-23T00:51:46.024Z,100875.19
2023-02-23T00:54:17.499Z,100881.06
2023-02-23T00:56:45.871Z,100878.81
2023-02-23T00:59:13.917Z,100878.34
2023-02-23T01:16:14.668Z,100889.09
2023-02-23T01:18:42.983Z,100886.50
2023-02-23T01:21:23.121Z,100890.13
2023-02-23T01:23:51.044Z,100890.00
2023-02-23T01:26:22.950Z,100892.25
2023-02-23T01:28:54.361Z,100885.84
2023-02-23T01:31:22.503Z,100894.91
2023-02-23T01:33:59.991Z,100888.47
2023-02-23T01:36:33.247Z,100887.69
2023-02-23T01:39:00.683Z,100890.88
2023-02-23T01:41:28.834Z,100894.94
2023-02-23T01:44:15.476Z,100890.94
2023-02-23T01:46:45.469Z,100896.38
2023-02-23T01:49:20.258Z,100899.16
2023-02-23T01:51:50.347Z,100892.56
2023-02-23T01:54:20.735Z,100888.56
2023-02-23T01:56:57.918Z,100892.63
2023-02-23T01:59:34.137Z,100886.97
2023-02-23T02:02:01.397Z,100891.13
2023-02-23T02:04:29.115Z,100887.50
2023-02-23T02:07:03.794Z,100892.63
2023-02-23T02:09:37.792Z,100897.84
2023-02-23T02:12:08.446Z,100896.53
2023-02-23T02:14:35.895Z,100893.19
2023-02-23T02:17:27.491Z,100894.63
2023-02-23T02:20:32.965Z,100895.41
2023-02-23T02:23:33.747Z,100897.50
2023-02-23T02:26:09.908Z,100896.75
2023-02-23T02:28:51.603Z,100892.53
2023-02-23T02:31:36.538Z,100894.81
2023-02-23T02:34:15.964Z,100889.97
2023-02-23T02:37:13.809Z,100888.97
2023-02-23T02:40:16.213Z,100884.81
2023-02-23T02:43:12.861Z,100875.44
2023-02-23T02:46:07.419Z,100880.13
2023-02-23T02:48:52.378Z,100881.66
2023-02-23T02:51:25.998Z,100877.84
2023-02-23T02:54:07.175Z,100880.06
2023-02-23T02:56:41.849Z,100885.34
2023-02-23T02:59:32.945Z,100887.31
2023-02-23T03:02:18.773Z,100884.38
2023-02-23T03:05:04.061Z,100889.66
2023-02-23T03:08:02.324Z,100887.75
2023-02-23T03:10:54.672Z,100888.66
2023-02-23T03:14:14.895Z,100888.22
2023-02-23T03:17:18.705Z,100890.47
2023-02-23T03:20:16.034Z,100893.38
2023-02-23T03:23:12.586Z,100896.25
2023-02-23T03:26:09.590Z,100891.44
2023-02-23T03:29:04.824Z,100895.03
2023-02-23T03:32:05.371Z,100895.56
2023-02-23T03:35:05.164Z,100899.25
2023-02-23T03:37:57.230Z,100900.06
2023-02-23T03:40:53.594Z,100900.09
2023-02-23T03:43:46.712Z,100906.63
2023-02-23T03:46:33.440Z,100907.00
2023-02-23T03:49:20.803Z,100903.06
2023-02-23T03:52:09.594Z,100909.44
2023-02-23T03:55:03.000Z,100908.13
2023-02-23T03:57:50.106Z,100912.13
2023-02-23T04:00:41.048Z,100916.09
2023-02-23T04:03:27.013Z,100917.38
2023-02-23T04:06:14.364Z,100923.00
2023-02-23T04:09:00.276Z,100916.41
2023-02-23T04:12:04.106Z,100915.50
2023-02-23T04:14:40.506Z,100929.22
2023-02-23T04:17:08.521Z,100928.75
2023-02-23T04:19:35.851Z,100935.47
2023-02-23T04:22:02.675Z,100924.81
2023-02-23T04:24:29.403Z,100932.94
2023-02-23T04:26:56.415Z,100936.44
2023-02-23T04:29:23.151Z,100933.84
2023-02-23T04:31:50.128Z,100933.84
2023-02-23T04:34:16.864Z,100938.53
2023-02-23T04:36:43.572Z,100944.59
2023-02-23T04:39:10.254Z,100945.91
2023-02-23T04:41:37.105Z,100939.66
2023-02-23T04:44:05.136Z,100949.56
2023-02-23T04:46:33.144Z,100943.19
2023-02-23T04:49:00.243Z,100933.78
2023-02-23T04:51:32.388Z,100940.66
2023-02-23T04:53:59.232Z,100940.94
2023-02-23T04:56:26.113Z,100950.69
2023-02-23T04:58:53.386Z,100950.34
2023-02-23T05:01:22.617Z,100944.59
2023-02-23T05:03:50.137Z,100950.03
2023-02-23T05:06:19.911Z,100950.31
2023-02-23T05:08:46.716Z,100944.72
2023-02-23T05:11:13.923Z,100954.66
2023-02-23T05:13:40.653Z,100954.50
2023-02-23T05:16:07.907Z,100955.94
2023-02-23T05:18:35.140Z,100956.91
2023-02-23T05:21:06.077Z,100960.53
2023-02-23T05:23:34.986Z,100958.19
2023-02-23T05:26:04.286Z,100956.75
2023-02-23T05:28:31.113Z,100964.53
2023-02-23T05:30:58.018Z,100969.34
2023-02-23T05:33:24.968Z,100965.66
2023-02-23T05:35:52.298Z,100969.19
2023-02-23T05:38:19.999Z,100971.09
2023-02-23T05:40:46.718Z,100975.53
2023-02-23T05:43:13.550Z,100978.75
2023-02-23T05:45:41.657Z,100978.75
2023-02-23T05:48:09.342Z,100980.50
2023-02-23T05:50:36.595Z,100980.50
2023-02-23T05:53:03.870Z,100981.63
2023-02-23T05:55:30.975Z,100983.25
2023-02-23T05:57:57.650Z,100980.84
2023-02-23T06:00:24.727Z,100979.28
2023-02-23T06:02:53.036Z,100979.09
2023-02-23T06:05:20.151Z,100980.06
2023-02-23T06:07:47.071Z,100981.97
2023-02-23T06:10:14.547Z,100987.41
2023-02-23T06:12:41.871Z,100983.41
2023-02-23T06:15:09.477Z,100993.47
2023-02-23T06:17:36.412Z,100993.78
2023-02-23T06:20:05.135Z,100991.72
2023-02-23T06:22:31.930Z,100994.13
2023-02-23T06:24:58.735Z,100993.31
2023-02-23T06:27:26.297Z,101000.50
2023-02-23T06:29:53.517Z,100999.22
2023-02-23T06:32:20.295Z,101001.78
2023-02-23T06:34:49.709Z,101000.34
2023-02-23T06:37:16.415Z,101012.00
2023-02-23T06:39:43.321Z,101016.66
2023-02-23T06:42:10.079Z,101018.25
2023-02-23T06:44:37.194Z,101020.31
2023-02-23T06:47:06.230Z,101026.91
2023-02-23T06:49:33.370Z,101033.91
2023-02-23T06:52:00.274Z,101036.16
2023-02-23T06:54:27.052Z,101027.84
2023-02-23T06:56:55.765Z,101033.13
2023-02-23T06:59:24.059Z,101027.69
2023-02-23T07:01:51.070Z,101025.75
2023-02-23T07:04:18.069Z,101031.69
2023-02-23T07:06:44.885Z,101038.69
2023-02-23T07:09:11.876Z,101040.94
2023-02-23T07:11:41.131Z,101047.66
2023-02-23T07:14:15.395Z,101048.44
2023-02-23T07:16:48.587Z,101058.38
2023-02-23T07:19:15.379Z,101047.66
2023-02-23T07:21:42.180Z,101057.88
2023-02-23T07:24:09.086Z,101059.00
2023-02-23T07:26:36.071Z,101068.28
2023-02-23T07:29:05.574Z,101072.75
2023-02-23T07:31:34.190Z,101075.31
2023-02-23T07:34:10.680Z,101082.50
2023-02-23T07:36:39.094Z,101081.06
2023-02-23T07:39:05.781Z,101089.38
2023-02-23T07:41:36.920Z,101089.22
2023-02-23T07:44:03.833Z,101095.28
2023-02-23T07:46:30.596Z,101088.09
2023-02-23T07:48:57.349Z,101096.06
2023-02-23T07:51:23.993Z,101097.53
2023-02-23T07:53:50.810Z,101093.19
2023-02-23T07:56:17.542Z,101108.53
2023-02-23T08:01:36.701Z,101116.53
2023-02-23T08:04:03.887Z,101129.16
2023-02-23T08:06:31.709Z,101125.50
2023-02-23T08:09:04.688Z,101125.81
2023-02-23T08:11:32.546Z,101125.63
2023-02-23T08:14:02.446Z,101133.47
2023-02-23T08:16:30.853Z,101141.94
2023-02-23T08:19:00.881Z,101144.66
2023-02-23T08:21:29.644Z,101150.41
2023-02-23T08:23:58.976Z,101146.41
2023-02-23T08:26:26.243Z,101147.69
2023-02-23T08:28:54.093Z,101161.69
2023-02-23T08:31:24.722Z,101163.69
2023-02-23T08:33:52.348Z,101166.53
2023-02-23T08:36:20.997Z,101157.06
2023-02-23T08:38:48.273Z,101150.31
2023-02-23T08:41:15.821Z,101159.78
2023-02-23T08:43:44.023Z,101151.44
2023-02-23T08:46:11.788Z,101154.88
2023-02-23T08:48:40.367Z,101157.88
2023-02-23T08:51:08.555Z,101162.75
2023-02-23T08:53:36.139Z,101163.94
2023-02-23T08:56:06.150Z,101162.97
2023-02-23T08:58:34.129Z,101174.84
2023-02-23T09:01:01.235Z,101176.13
2023-02-23T09:03:30.551Z,101165.41
2023-02-23T09:05:59.293Z,101176.31
2023-02-23T09:08:26.184Z,101174.34
2023-02-23T09:10:53.782Z,101176.34
2023-02-23T09:13:20.593Z,101178.06
2023-02-23T09:15:48.172Z,101171.88
2023-02-23T09:18:15.276Z,101186.84
2023-02-23T09:20:43.946Z,101190.03
2023-02-23T09:23:13.689Z,101179.00
2023-02-23T09:25:44.726Z,101188.47
2023-02-23T09:28:13.613Z,101193.56
2023-02-23T09:30:41.738Z,101197.50
2023-02-23T09:33:09.076Z,101208.53
2023-02-23T09:35:36.987Z,101201.03
2023-02-23T09:38:05.088Z,101198.81
2023-02-23T09:40:43.798Z,101207.47
2023-02-23T09:43:43.467Z,101213.38
2023-02-23T09:46:29.456Z,101211.28
2023-02-23T09:48:57.346Z,101221.00
2023-02-23T09:51:25.070Z,101227.59
2023-02-23T09:53:54.661Z,101230.50
2023-02-23T09:56:30.129Z,101224.25
2023-02-23T09:58:57.267Z,101221.41
2023-02-23T10:01:46.269Z,101221.91
2023-02-23T10:04:24.022Z,101219.97
2023-02-23T10:07:12.437Z,101227.81
2023-02-23T10:09:48.269Z,101227.34
2023-02-23T10:12:43.058Z,101232.31
2023-02-23T10:15:16.868Z,101225.16
2023-02-23T10:18:03.500Z,101229.28
2023-02-23T10:20:37.188Z,101235.66
2023-02-23T10:23:08.401Z,101236.34
2023-02-23T10:25:38.804Z,101232.81
2023-02-23T10:28:05.800Z,101246.38
2023-02-23T10:30:33.865Z,101232.63
2023-02-23T10:33:19.897Z,101237.28
2023-02-23T10:35:46.965Z,101230.38
2023-02-23T10:38:16.631Z,101230.22
2023-02-23T10:40:45.574Z,101222.56
2023-02-23T10:43:13.245Z,101231.22
2023-02-23T10:45:45.813Z,101234.88
2023-02-23T10:48:33.584Z,101234.25
2023-02-23T10:51:03.151Z,101229.22
2023-02-23T10:53:37.585Z,101233.72
2023-02-23T10:56:15.955Z,101220.09
2023-02-23T10:58:55.261Z,101233.13
2023-02-23T11:02:00.302Z,101225.59
2023-02-23T11:04:30.804Z,101234.72
2023-02-23T11:07:16.410Z,101228.59
2023-02-23T11:09:47.481Z,101234.22
2023-02-23T11:12:46.021Z,101223.53
2023-02-23T11:15:35.268Z,101228.00
2023-02-23T11:18:20.563Z,101230.72
2023-02-23T11:20:48.149Z,101228.50
2023-02-23T11:23:20.425Z,101236.78
2023-02-23T11:25:49.510Z,101237.31
2023-02-23T11:28:23.892Z,101228.31
2023-02-23T11:30:51.802Z,101227.84
2023-02-23T11:33:21.498Z,101232.94
2023-02-23T11:35:49.287Z,101232.28
2023-02-23T11:38:23.741Z,101227.16
2023-02-23T11:41:03.349Z,101215.16
2023-02-23T11:43:32.015Z,101218.09
2023-02-23T11:46:01.012Z,101221.84
2023-02-23T11:48:44.625Z,101217.47
2023-02-23T11:51:11.393Z,101220.00
2023-02-23T11:53:41.040Z,101209.94
2023-02-23T11:56:12.587Z,101213.09
2023-02-23T11:58:43.236Z,101215.16
2023-02-23T12:01:13.896Z,101205.59
2023-02-23T12:03:50.497Z,101223.81
2023-02-23T12:06:37.011Z,101222.38
2023-02-23T12:09:07.030Z,101222.22
2023-02-23T12:11:45.119Z,101210.81
2023-02-23T12:14:49.717Z,101219.25
2023-02-23T12:17:19.628Z,101218.38
2023-02-23T12:20:12.298Z,101204.41
2023-02-23T12:22:43.521Z,101213.53
2023-02-23T12:25:34.319Z,101215.91
2023-02-23T12:28:27.959Z,101207.56
2023-02-23T12:31:35.051Z,101207.44
2023-02-23T12:34:09.516Z,101218.34
2023-02-23T12:36:49.505Z,101211.22
2023-02-23T12:39:36.586Z,101213.25
2023-02-23T12:42:23.474Z,101215.63
2023-02-23T12:44:57.223Z,101204.84
2023-02-23T12:47:32.485Z,101205.69
2023-02-23T12:50:07.777Z,101208.59
2023-02-23T12:52:44.256Z,101198.97
2023-02-23T12:55:13.398Z,101210.91
2023-02-23T12:57:55.093Z,101200.91
2023-02-23T13:00:59.005Z,101207.94
2023-02-23T13:04:09.808Z,101212.13
2023-02-23T13:06:48.870Z,101211.09
2023-02-23T13:09:43.128Z,101215.78
2023-02-23T13:12:28.183Z,101222.22
2023-02-23T13:15:13.107Z,101218.34
2023-02-23T13:17:51.223Z,101218.00
2023-02-23T13:20:37.994Z,101214.75
2023-02-23T13:23:10.846Z,101215.16
2023-02-23T13:26:10.710Z,101209.72
2023-02-23T13:28:52.857Z,101202.50
2023-02-23T13:31:25.869Z,101204.81
2023-02-23T13:33:54.834Z,101202.94
2023-02-23T13:36:22.594Z,101197.13
2023-02-23T13:39:18.571Z,101199.03
2023-02-23T13:42:22.662Z,101204.00
2023-02-23T13:45:24.333Z,101201.09
2023-02-23T13:48:02.654Z,101211.78
2023-02-23T13:50:49.446Z,101208.44
2023-02-23T13:53:41.421Z,101218.53
2023-02-23T13:56:18.939Z,101213.13
2023-02-23T13:58:57.702Z,101217.94
2023-02-23T14:01:32.254Z,101222.88
2023-02-23T14:04:07.386Z,101215.69
2023-02-23T14:06:34.577Z,101206.53
2023-02-23T14:09:23.782Z,101214.06
2023-02-23T14:12:19.442Z,101213.56
2023-02-23T14:14:47.097Z,101211.03
2023-02-23T14:17:19.152Z,101213.13
2023-02-23T14:20:13.376Z,101218.66
2023-02-23T14:23:28.330Z,101221.59
2023-02-23T14:26:18.274Z,101226.41
2023-02-23T14:28:49.306Z,101212.16
2023-02-23T14:31:22.477Z,101219.97
2023-02-23T14:33:53.349Z,101207.53
2023-02-23T14:36:29.015Z,101213.63
2023-02-23T14:38:56.540Z,101219.22
2023-02-23T14:41:25.764Z,101216.16
2023-02-23T14:44:29.982Z,101223.19
2023-02-23T14:47:09.586Z,101225.63
2023-02-23T14:49:41.062Z,101231.69
2023-02-23T14:52:12.738Z,101229.13
2023-02-23T14:54:40.812Z,101228.31
2023-02-23T14:57:17.897Z,101230.22
2023-02-23T14:59:45.987Z,101232.34
2023-02-23T15:02:19.987Z,101231.50
2023-02-23T15:04:47.091Z,101236.59
2023-02-23T15:07:31.073Z,101236.00
2023-02-23T15:09:59.430Z,101232.91
2023-02-23T15:12:34.978Z,101228.91
2023-02-23T15:15:03.881Z,101237.34
2023-02-23T15:17:32.900Z,101229.88
2023-02-23T15:20:15.477Z,101228.59
2023-02-23T15:22:44.716Z,101232.13
2023-02-23T15:25:24.076Z,101238.97
2023-02-23T15:27:51.909Z,101230.16
2023-02-23T15:30:20.283Z,101238.63
2023-02-23T15:32:48.026Z,101230.16
2023-02-23T15:35:16.625Z,101228.03
2023-02-23T15:37:49.525Z,101226.47
2023-02-23T15:40:25.018Z,101232.53
2023-02-23T15:42:54.663Z,101223.91
2023-02-23T15:45:30.288Z,101226.13
2023-02-23T15:48:04.049Z,101228.31
2023-02-23T15:50:40.826Z,101233.88
2023-02-23T15:53:13.785Z,101233.91
2023-02-23T15:55:43.776Z,101234.34
2023-02-23T15:58:15.865Z,101236.50
2023-02-23T16:00:44.849Z,101234.91
2023-02-23T16:03:35.884Z,101235.69
2023-02-23T16:06:06.946Z,101240.97
2023-02-23T16:08:36.774Z,101231.97
2023-02-23T16:11:07.842Z,101231.31
2023-02-23T16:13:34.840Z,101224.59
2023-02-23T16:16:02.300Z,101223.34
2023-02-23T16:18:42.294Z,101223.78
2023-02-23T16:21:16.942Z,101226.78
2023-02-23T16:23:49.641Z,101239.31
2023-02-23T16:26:25.819Z,101240.00
2023-02-23T16:29:01.037Z,101239.06
2023-02-23T16:31:49.569Z,101241.63
2023-02-23T16:34:21.016Z,101248.75
2023-02-23T16:36:57.738Z,101248.16
2023-02-23T16:39:29.336Z,101235.53
2023-02-23T16:41:58.634Z,101239.03
2023-02-23T16:44:37.788Z,101241.63
2023-02-23T16:47:09.680Z,101244.50
2023-02-23T16:49:36.506Z,101243.53
2023-02-23T16:52:06.895Z,101242.72
2023-02-23T16:54:33.598Z,101247.81
2023-02-23T16:57:00.366Z,101242.72
2023-02-23T16:59:28.994Z,101241.75
2023-02-23T17:01:55.739Z,101250.13
2023-02-23T17:04:23.316Z,101249.88
2023-02-23T17:06:55.681Z,101252.81
2023-02-23T17:09:22.594Z,101261.25
2023-02-23T17:11:49.344Z,101261.41
2023-02-23T17:14:28.105Z,101260.34
2023-02-23T17:16:55.155Z,101253.63
2023-02-23T17:19:24.442Z,101258.56
2023-02-23T17:21:53.236Z,101261.63
2023-02-23T17:24:20.010Z,101257.59
2023-02-23T17:26:47.033Z,101259.47
2023-02-23T17:29:13.966Z,101271.00
2023-02-23T17:31:43.042Z,101260.31
2023-02-23T17:34:14.057Z,101263.50
2023-02-23T17:36:45.245Z,101273.47
2023-02-23T17:39:14.211Z,101271.38
2023-02-23T17:41:41.792Z,101270.44
2023-02-23T17:44:08.720Z,101274.44
2023-02-23T17:46:36.081Z,101268.50
2023-02-23T17:49:03.042Z,101265.63
2023-02-23T17:51:29.889Z,101286.13
2023-02-23T17:53:56.917Z,101271.53
2023-02-23T17:56:24.234Z,101266.91
2023-02-23T17:58:51.046Z,101281.47
2023-02-23T18:01:19.823Z,101284.97
2023-02-23T18:03:47.983Z,101281.13
2023-02-23T18:06:16.897Z,101284.03
2023-02-23T18:08:44.291Z,101285.94
2023-02-23T18:11:11.450Z,101276.34
2023-02-23T18:13:38.373Z,101282.75
2023-02-23T18:16:13.197Z,101289.28
2023-02-23T18:18:42.624Z,101287.19
2023-02-23T18:21:21.152Z,101286.25
2023-02-23T18:23:49.702Z,101280.63
2023-02-23T18:26:23.394Z,101299.88
2023-02-23T18:28:55.364Z,101289.59
2023-02-23T18:31:30.424Z,101284.16
2023-02-23T18:34:01.490Z,101277.44
2023-02-23T18:36:37.755Z,101273.63
2023-02-23T18:39:07.525Z,101298.09
2023-02-23T18:41:37.468Z,101288.66
2023-02-23T18:44:06.730Z,101281.78
2023-02-23T18:46:34.315Z,101280.19
2023-02-23T18:49:01.886Z,101301.44
2023-02-23T18:51:33.713Z,101290.56
2023-02-23T18:54:00.666Z,101286.25
2023-02-23T18:56:32.985Z,101284.50
2023-02-23T18:59:01.687Z,101287.84
2023-02-23T19:01:31.288Z,101283.53
2023-02-23T19:04:01.810Z,101281.13
2023-02-23T19:06:34.095Z,101285.78
2023-02-23T19:09:10.019Z,101279.22
2023-02-23T19:12:03.210Z,101288.97
2023-02-23T19:14:48.372Z,101280.66
2023-02-23T19:17:15.957Z,101290.41
2023-02-23T19:19:43.314Z,101280.97
2023-02-23T19:22:10.991Z,101282.41
2023-02-23T19:24:38.283Z,101281.94
2023-02-23T19:27:05.413Z,101284.34
2023-02-23T19:29:32.790Z,101289.31
2023-02-23T19:32:00.615Z,101291.06
2023-02-23T19:34:28.018Z,101286.75
2023-02-23T19:37:00.734Z,101287.06
2023-02-23T19:39:30.135Z,101286.56
2023-02-23T19:42:00.884Z,101278.59
2023-02-23T19:44:27.883Z,101286.91
2023-02-23T19:46:54.807Z,101284.00
2023-02-23T19:49:21.796Z,101283.56
2023-02-23T19:51:55.773Z,101278.56
2023-02-23T19:54:27.961Z,101275.19
2023-02-23T19:56:57.730Z,101275.41
2023-02-23T19:59:24.715Z,101274.91
2023-02-23T20:01:51.803Z,101278.44
2023-02-23T20:04:18.969Z,101279.53
2023-02-23T20:06:47.195Z,101286.59
2023-02-23T20:09:14.762Z,101282.09
2023-02-23T20:11:42.905Z,101281.28
2023-02-23T20:14:11.031Z,101291.84
2023-02-23T20:16:38.525Z,101285.94
2023-02-23T20:19:07.610Z,101287.22
2023-02-23T20:21:34.848Z,101289.31
2023-02-23T20:24:01.867Z,101294.56
2023-02-23T20:26:31.276Z,101300.00
2023-02-23T20:28:58.752Z,101302.09
2023-02-23T20:31:32.719Z,101295.16
2023-02-23T20:34:03.763Z,101300.41
2023-02-23T20:36:33.031Z,101305.88
2023-02-23T20:39:00.334Z,101301.91
2023-02-23T20:41:34.269Z,101304.25
2023-02-23T20:44:04.659Z,101307.16
2023-02-23T20:46:31.923Z,101301.88
2023-02-23T20:48:59.676Z,101302.16
2023-02-23T20:51:27.050Z,101303.22
2023-02-23T20:53:53.773Z,101305.38
2023-02-23T20:56:21.872Z,101305.72
2023-02-23T20:58:49.424Z,101303.91
2023-02-23T21:01:22.776Z,101298.81
2023-02-23T21:03:51.597Z,101303.13
2023-02-23T21:06:20.078Z,101298.53
2023-02-23T21:08:50.745Z,101303.94
2023-02-23T21:11:20.264Z,101301.78
2023-02-23T21:13:47.572Z,101299.13
2023-02-23T21:16:16.971Z,101304.97
2023-02-23T21:18:44.634Z,101303.22
2023-02-23T21:21:11.769Z,101304.66
2023-02-23T21:23:40.032Z,101301.94
2023-02-23T21:26:16.362Z,101304.22
2023-02-23T21:28:44.488Z,101314.69
2023-02-23T21:31:12.749Z,101303.25
2023-02-23T21:33:41.880Z,101310.09
2023-02-23T21:36:10.769Z,101311.97
2023-02-23T21:38:38.769Z,101308.56
2023-02-23T21:41:06.254Z,101311.91
2023-02-23T21:43:37.517Z,101312.91
2023-02-23T21:46:12.024Z,101297.41
2023-02-23T21:48:38.955Z,101290.94
2023-02-23T21:51:07.548Z,101279.69
2023-02-23T21:53:35.024Z,101280.31
2023-02-23T21:56:16.677Z,101286.00
2023-02-23T21:58:51.210Z,101281.38
2023-02-23T22:01:21.234Z,101297.22
2023-02-23T22:03:48.693Z,101296.22
2023-02-23T22:06:17.727Z,101295.66
2023-02-23T22:08:45.794Z,101290.38
2023-02-23T22:11:17.295Z,101294.50
2023-02-23T22:13:45.729Z,101301.66
2023-02-23T22:16:14.494Z,101300.94
2023-02-23T22:18:42.425Z,101294.72
2023-02-23T22:21:11.743Z,101294.22
2023-02-23T22:23:43.892Z,101292.41
2023-02-23T22:26:11.034Z,101295.94
2023-02-23T22:28:37.911Z,101286.47
2023-02-23T22:31:10.990Z,101285.63
2023-02-23T22:33:41.841Z,101298.34
2023-02-23T22:36:10.794Z,101286.69
2023-02-23T22:38:37.867Z,101287.78
2023-02-23T22:41:11.688Z,101284.56
2023-02-23T22:43:45.917Z,101280.97
2023-02-23T22:46:13.867Z,101279.31
2023-02-23T22:48:45.352Z,101280.88
2023-02-23T22:51:13.702Z,101283.81
2023-02-23T22:53:40.573Z,101274.94
2023-02-23T22:56:07.658Z,101270.63
2023-02-23T22:58:34.693Z,101272.53
2023-02-23T23:01:04.757Z,101275.78
2023-02-23T23:03:41.916Z,101284.38
2023-02-23T23:06:10.737Z,101280.06
2023-02-23T23:08:40.621Z,101282.59
2023-02-23T23:11:15.321Z,101274.56
2023-02-23T23:13:45.490Z,101267.63
2023-02-23T23:16:31.042Z,101272.22
2023-02-23T23:19:12.167Z,101278.00
2023-02-23T23:21:41.129Z,101269.84
2023-02-23T23:24:16.018Z,101277.72
2023-02-23T23:26:44.429Z,101270.97
2023-02-23T23:29:13.870Z,101276.75
2023-02-23T23:31:45.323Z,101275.75
2023-02-23T23:34:13.178Z,101270.75
2023-02-23T23:36:49.407Z,101274.16
2023-02-23T23:39:22.550Z,101273.31
2023-02-23T23:41:50.265Z,101269.06
2023-02-23T23:44:21.743Z,101270.41
2023-02-23T23:46:52.960Z,101266.44
2023-02-23T23:49:21.980Z,101255.44
2023-02-23T23:51:50.913Z,101259.09
2023-02-23T23:54:26.115Z,101254.22
2023-02-23T23:56:53.370Z,101251.56
2023-02-23T23:59:22.846Z,101245.59
